createdAt,value
2023-01-07T00:00:02.200Z,7.68
2023-01-07T00:03:16.571Z,7.85
2023-01-07T00:06:27.599Z,7.83
2023-01-07T00:09:30.058Z,7.67
2023-01-07T00:12:33.207Z,7.78
2023-01-07T00:15:37.112Z,7.65
2023-01-07T00:18:39.827Z,7.59
2023-01-07T00:21:42.825Z,7.76
2023-01-07T00:24:45.505Z,7.71
2023-01-07T00:27:48.298Z,7.63
2023-01-07T00:30:51.912Z,7.59
2023-01-07T00:33:55.252Z,7.10
2023-01-07T00:37:17.986Z,7.84
2023-01-07T00:40:22.087Z,7.86
2023-01-07T00:43:24.969Z,7.89
2023-01-07T00:46:27.512Z,7.81
2023-01-07T00:49:30.343Z,7.71
2023-01-07T00:52:32.705Z,7.75
2023-01-07T00:55:35.583Z,7.64
2023-01-07T00:58:38.458Z,7.75
2023-01-07T01:01:41.443Z,7.72
2023-01-07T01:04:44.002Z,7.91
2023-01-07T01:07:49.290Z,7.90
2023-01-07T01:10:51.650Z,7.88
2023-01-07T01:13:54.740Z,7.83
2023-01-07T01:17:02.828Z,7.92
2023-01-07T01:20:13.764Z,7.95
2023-01-07T01:23:16.238Z,7.79
2023-01-07T01:26:22.932Z,7.95
2023-01-07T01:29:28.311Z,7.70
2023-01-07T01:32:31.697Z,7.79
2023-01-07T01:35:34.202Z,7.61
2023-01-07T01:38:37.183Z,7.60
2023-01-07T01:41:40.167Z,7.46
2023-01-07T01:44:59.618Z,7.38
2023-01-07T01:48:09.755Z,7.45
2023-01-07T01:51:17.170Z,7.52
2023-01-07T01:54:20.659Z,7.41
2023-01-07T01:57:26.339Z,7.54
2023-01-07T02:00:30.197Z,7.70
2023-01-07T02:03:36.518Z,7.56
2023-01-07T02:06:50.686Z,7.73
2023-01-07T02:10:10.048Z,7.69
2023-01-07T02:13:27.817Z,7.73
2023-01-07T02:16:48.669Z,7.71
2023-01-07T02:20:12.797Z,7.54
2023-01-07T02:23:15.684Z,7.68
2023-01-07T02:26:45.641Z,7.67
2023-01-07T02:29:57.295Z,7.51
2023-01-07T02:33:14.728Z,7.42
2023-01-07T02:36:29.738Z,7.56
2023-01-07T02:40:04.334Z,7.50
2023-01-07T02:43:16.563Z,7.43
2023-01-07T02:46:25.897Z,7.42
2023-01-07T02:49:28.787Z,7.22
2023-01-07T02:52:33.381Z,7.28
2023-01-07T02:55:50.430Z,7.17
2023-01-07T02:59:06.183Z,7.08
2023-01-07T03:02:39.893Z,7.17
2023-01-07T03:06:03.956Z,6.98
2023-01-07T03:09:33.859Z,7.16
2023-01-07T03:12:54.814Z,7.14
2023-01-07T03:16:04.076Z,7.10
2023-01-07T03:19:16.636Z,7.08
2023-01-07T03:22:22.644Z,6.88
2023-01-07T03:25:30.781Z,6.92
2023-01-07T03:28:40.533Z,7.01
2023-01-07T03:32:02.951Z,6.88
2023-01-07T03:35:06.269Z,6.96
2023-01-07T03:38:10.274Z,6.91
2023-01-07T03:41:33.070Z,6.74
2023-01-07T03:44:37.057Z,6.85
2023-01-07T03:47:45.111Z,6.88
2023-01-07T03:50:48.050Z,6.67
2023-01-07T03:53:51.055Z,6.83
2023-01-07T03:56:53.528Z,6.67
2023-01-07T03:59:56.188Z,6.61
2023-01-07T04:02:58.629Z,6.50
2023-01-07T04:06:01.620Z,6.70
2023-01-07T04:09:04.297Z,6.55
2023-01-07T04:12:08.359Z,6.53
2023-01-07T04:15:11.338Z,6.72
2023-01-07T04:18:14.167Z,6.68
2023-01-07T04:21:16.573Z,6.68
2023-01-07T04:24:19.287Z,6.66
2023-01-07T04:27:21.787Z,6.50
2023-01-07T04:30:24.740Z,6.47
2023-01-07T04:33:27.253Z,6.50
2023-01-07T04:36:30.039Z,6.66
2023-01-07T04:39:32.779Z,6.68
2023-01-07T04:42:38.305Z,6.63
2023-01-07T04:45:42.205Z,6.61
2023-01-07T04:48:45.339Z,6.61
2023-01-07T04:51:47.934Z,6.58
2023-01-07T04:54:51.681Z,6.09
2023-01-07T04:57:56.397Z,6.49
2023-01-07T05:00:59.966Z,6.39
2023-01-07T05:04:03.754Z,6.38
2023-01-07T05:07:08.562Z,6.22
2023-01-07T05:10:11.003Z,6.20
2023-01-07T05:13:18.094Z,6.28
2023-01-07T05:16:21.030Z,6.12
2023-01-07T05:19:23.813Z,6.23
2023-01-07T05:22:26.865Z,6.17
2023-01-07T05:25:30.416Z,6.28
2023-01-07T05:28:32.974Z,6.23
2023-01-07T05:31:37.006Z,6.27
2023-01-07T05:34:40.123Z,6.22
2023-01-07T05:37:43.545Z,6.29
2023-01-07T05:40:50.023Z,6.13
2023-01-07T05:43:55.699Z,5.46
2023-01-07T05:46:58.167Z,6.04
2023-01-07T05:50:00.825Z,5.91
2023-01-07T05:53:03.195Z,6.00
2023-01-07T05:56:06.074Z,6.19
2023-01-07T05:59:08.450Z,6.25
2023-01-07T06:02:11.250Z,6.29
2023-01-07T06:05:13.917Z,6.22
2023-01-07T06:08:16.349Z,6.21
2023-01-07T06:11:19.061Z,6.33
2023-01-07T06:14:21.417Z,6.38
2023-01-07T06:17:24.097Z,6.42
2023-01-07T06:20:26.621Z,6.43
2023-01-07T06:23:29.645Z,6.31
2023-01-07T06:26:32.338Z,6.43
2023-01-07T06:29:35.074Z,6.47
2023-01-07T06:32:39.149Z,6.49
2023-01-07T06:35:42.253Z,6.48
2023-01-07T06:38:44.649Z,6.53
2023-01-07T06:41:47.367Z,6.45
2023-01-07T06:44:49.721Z,6.46
2023-01-07T06:47:53.619Z,6.47
2023-01-07T06:50:56.050Z,6.40
2023-01-07T06:53:58.771Z,6.34
2023-01-07T06:57:01.417Z,6.29
2023-01-07T07:00:07.612Z,6.25
2023-01-07T07:03:10.211Z,6.25
2023-01-07T07:06:12.938Z,6.22
2023-01-07T07:09:15.354Z,6.01
2023-01-07T07:12:19.319Z,6.06
2023-01-07T07:15:21.693Z,5.92
2023-01-07T07:18:24.353Z,6.08
2023-01-07T07:21:26.756Z,5.91
2023-01-07T07:24:29.409Z,5.99
2023-01-07T07:27:31.901Z,6.13
2023-01-07T07:30:45.921Z,6.14
2023-01-07T07:33:50.207Z,6.16
2023-01-07T07:36:53.034Z,6.24
2023-01-07T07:39:55.928Z,6.22
2023-01-07T07:43:11.592Z,6.47
2023-01-07T07:46:15.506Z,6.60
2023-01-07T07:49:21.360Z,6.33
2023-01-07T07:52:23.790Z,6.73
2023-01-07T07:55:26.751Z,6.83
2023-01-07T07:58:29.114Z,6.94
2023-01-07T08:01:31.918Z,7.04
2023-01-07T08:04:37.323Z,7.00
2023-01-07T08:07:39.831Z,7.07
2023-01-07T08:10:42.706Z,7.26
2023-01-07T08:13:46.412Z,7.37
2023-01-07T08:16:48.949Z,7.71
2023-01-07T08:19:51.262Z,7.88
2023-01-07T08:22:54.370Z,8.04
2023-01-07T08:26:02.859Z,8.29
2023-01-07T08:29:05.552Z,8.48
2023-01-07T08:32:07.949Z,8.69
2023-01-07T08:35:10.918Z,9.01
2023-01-07T08:38:13.464Z,9.26
2023-01-07T08:41:16.111Z,9.45
2023-01-07T08:44:18.457Z,9.84
2023-01-07T08:47:21.186Z,9.91
2023-01-07T08:50:28.385Z,10.19
2023-01-07T08:53:31.067Z,10.75
2023-01-07T08:56:33.741Z,11.43
2023-01-07T08:59:38.698Z,11.86
2023-01-07T09:02:41.119Z,12.29
2023-01-07T09:05:46.706Z,12.68
2023-01-07T09:08:52.423Z,13.13
2023-01-07T09:11:55.097Z,13.54
2023-01-07T09:14:57.639Z,13.80
2023-01-07T09:18:03.500Z,14.16
2023-01-07T09:21:06.162Z,14.54
2023-01-07T09:24:09.400Z,14.82
2023-01-07T09:27:11.850Z,15.26
2023-01-07T09:30:14.962Z,15.71
2023-01-07T09:33:17.331Z,15.89
2023-01-07T09:36:19.984Z,16.13
2023-01-07T09:39:22.324Z,16.23
2023-01-07T09:42:27.716Z,16.78
2023-01-07T09:45:36.857Z,17.32
2023-01-07T09:48:44.968Z,17.55
2023-01-07T09:51:57.289Z,18.36
2023-01-07T09:55:17.566Z,18.86
2023-01-07T09:58:21.858Z,18.99
2023-01-07T10:01:36.596Z,19.12
2023-01-07T10:05:02.222Z,19.32
2023-01-07T10:08:33.502Z,19.53
2023-01-07T10:12:17.679Z,19.99
2023-01-07T10:15:38.605Z,19.76
2023-01-07T10:18:54.759Z,19.55
2023-01-07T10:22:02.810Z,19.37
2023-01-07T10:25:19.680Z,20.20
2023-01-07T10:28:38.857Z,20.31
2023-01-07T10:31:42.712Z,20.54
2023-01-07T10:34:48.019Z,20.49
2023-01-07T10:37:51.230Z,20.28
2023-01-07T10:40:59.538Z,20.73
2023-01-07T10:44:25.890Z,20.75
2023-01-07T10:47:30.986Z,20.75
2023-01-07T10:51:17.936Z,20.60
2023-01-07T10:54:34.520Z,21.26
2023-01-07T10:57:38.855Z,21.92
2023-01-07T11:00:41.737Z,22.88
2023-01-07T11:03:47.071Z,23.54
2023-01-07T11:06:59.000Z,24.03
2023-01-07T11:10:05.480Z,24.47
2023-01-07T11:13:24.492Z,24.28
2023-01-07T11:16:31.979Z,24.85
2023-01-07T11:19:44.558Z,25.23
2023-01-07T11:22:47.243Z,25.30
2023-01-07T11:25:49.641Z,25.06
2023-01-07T11:28:56.493Z,23.85
2023-01-07T11:32:02.631Z,22.61
2023-01-07T11:35:18.039Z,21.91
2023-01-07T11:38:30.730Z,20.85
2023-01-07T11:41:53.053Z,20.22
2023-01-07T11:45:17.056Z,19.93
2023-01-07T11:48:30.327Z,19.76
2023-01-07T11:51:40.645Z,19.59
2023-01-07T11:54:50.222Z,19.34
2023-01-07T11:58:28.314Z,19.13
2023-01-07T12:01:23.272Z,18.87
2023-01-07T12:04:36.390Z,18.37
2023-01-07T12:07:44.706Z,18.18
2023-01-07T12:10:59.974Z,18.21
2023-01-07T12:14:20.164Z,18.15
2023-01-07T12:17:28.542Z,18.23
2023-01-07T12:21:24.264Z,18.31
2023-01-07T12:24:38.304Z,18.01
2023-01-07T12:27:52.827Z,17.82
2023-01-07T12:31:24.284Z,17.90
2023-01-07T12:34:51.880Z,18.27
2023-01-07T12:38:05.002Z,19.00
2023-01-07T12:41:25.403Z,19.33
2023-01-07T12:44:28.205Z,19.62
2023-01-07T12:47:38.915Z,20.33
2023-01-07T12:50:46.214Z,20.64
2023-01-07T12:54:12.241Z,20.78
2023-01-07T12:57:21.209Z,20.87
2023-01-07T13:00:27.699Z,20.64
2023-01-07T13:04:11.994Z,20.31
2023-01-07T13:07:25.439Z,19.72
2023-01-07T13:10:38.460Z,18.95
2023-01-07T13:13:45.932Z,18.16
2023-01-07T13:16:49.352Z,17.58
2023-01-07T13:19:53.024Z,16.91
2023-01-07T13:22:57.375Z,16.50
2023-01-07T13:26:44.883Z,16.02
2023-01-07T13:30:08.942Z,15.77
2023-01-07T13:33:28.880Z,15.40
2023-01-07T13:37:05.970Z,15.04
2023-01-07T13:40:24.588Z,14.85
2023-01-07T13:43:54.745Z,14.70
2023-01-07T13:46:57.453Z,14.46
2023-01-07T13:50:02.538Z,14.35
2023-01-07T13:53:26.635Z,14.21
2023-01-07T13:56:30.949Z,14.08
2023-01-07T13:59:47.973Z,13.95
2023-01-07T14:02:58.137Z,13.78
2023-01-07T14:06:22.112Z,13.58
2023-01-07T14:09:32.277Z,13.48
2023-01-07T14:13:10.013Z,13.21
2023-01-07T14:16:31.134Z,13.17
2023-01-07T14:19:58.638Z,12.99
2023-01-07T14:23:21.021Z,12.83
2023-01-07T14:26:29.994Z,12.61
2023-01-07T14:29:41.141Z,12.43
2023-01-07T14:32:46.815Z,12.24
2023-01-07T14:35:59.019Z,12.09
2023-01-07T14:39:02.660Z,11.82
2023-01-07T14:42:20.354Z,11.68
2023-01-07T14:45:41.452Z,11.72
2023-01-07T14:48:43.935Z,11.58
2023-01-07T14:52:09.668Z,11.48
2023-01-07T14:55:21.648Z,11.43
2023-01-07T14:58:59.342Z,11.32
2023-01-07T15:02:39.490Z,11.08
2023-01-07T15:06:05.192Z,11.11
2023-01-07T15:09:36.438Z,11.01
2023-01-07T15:13:01.418Z,10.90
2023-01-07T15:16:07.424Z,10.80
2023-01-07T15:19:12.756Z,10.71
2023-01-07T15:22:34.975Z,10.51
2023-01-07T15:25:57.260Z,10.59
2023-01-07T15:29:27.787Z,10.50
2023-01-07T15:32:57.942Z,10.45
2023-01-07T15:36:04.496Z,10.16
2023-01-07T15:39:13.708Z,10.08
2023-01-07T15:42:20.402Z,10.10
2023-01-07T15:45:25.149Z,10.13
2023-01-07T15:48:27.937Z,9.85
2023-01-07T15:51:39.801Z,9.87
2023-01-07T15:54:42.493Z,9.96
2023-01-07T15:57:46.380Z,9.75
2023-01-07T16:00:53.332Z,9.83
2023-01-07T16:03:57.264Z,9.79
2023-01-07T16:07:00.673Z,9.76
2023-01-07T16:10:03.635Z,9.54
2023-01-07T16:13:18.236Z,9.64
2023-01-07T16:16:21.193Z,9.58
2023-01-07T16:19:23.574Z,9.29
2023-01-07T16:22:27.836Z,9.34
2023-01-07T16:25:40.236Z,9.44
2023-01-07T16:28:48.773Z,9.37
2023-01-07T16:31:51.680Z,9.33
2023-01-07T16:35:00.416Z,9.11
2023-01-07T16:38:03.715Z,9.24
2023-01-07T16:41:06.839Z,9.18
2023-01-07T16:44:49.684Z,8.96
2023-01-07T16:48:14.994Z,8.99
2023-01-07T16:51:39.833Z,8.79
2023-01-07T16:54:46.794Z,8.86
2023-01-07T16:57:49.317Z,8.64
2023-01-07T17:00:54.145Z,8.59
2023-01-07T17:03:59.833Z,8.54
2023-01-07T17:07:02.988Z,8.36
2023-01-07T17:10:06.629Z,8.47
2023-01-07T17:13:15.408Z,8.45
2023-01-07T17:16:36.944Z,8.22
2023-01-07T17:19:42.103Z,8.25
2023-01-07T17:22:45.538Z,8.22
2023-01-07T17:25:49.199Z,8.16
2023-01-07T17:29:01.402Z,8.15
2023-01-07T17:32:04.550Z,8.22
2023-01-07T17:35:07.519Z,8.11
2023-01-07T17:38:13.120Z,8.20
2023-01-07T17:41:41.746Z,8.23
2023-01-07T17:44:45.735Z,8.21
2023-01-07T17:47:49.691Z,8.02
2023-01-07T17:50:53.585Z,8.20
2023-01-07T17:53:58.667Z,8.08
2023-01-07T17:57:01.379Z,8.17
2023-01-07T18:00:04.441Z,8.20
2023-01-07T18:03:15.154Z,7.96
2023-01-07T18:06:27.583Z,8.02
2023-01-07T18:09:29.886Z,8.03
2023-01-07T18:12:34.987Z,8.00
2023-01-07T18:15:37.363Z,8.12
2023-01-07T18:18:40.034Z,8.19
2023-01-07T18:21:42.650Z,7.97
2023-01-07T18:24:45.241Z,8.16
2023-01-07T18:27:49.295Z,8.03
2023-01-07T18:30:51.977Z,8.18
2023-01-07T18:33:54.328Z,7.96
2023-01-07T18:36:57.657Z,8.10
2023-01-07T18:40:02.340Z,8.02
2023-01-07T18:43:05.303Z,8.04
2023-01-07T18:46:09.525Z,7.92
2023-01-07T18:49:12.445Z,8.07
2023-01-07T18:52:14.781Z,8.19
2023-01-07T18:55:19.316Z,8.14
2023-01-07T18:58:22.912Z,8.15
2023-01-07T19:01:25.823Z,8.04
2023-01-07T19:04:28.516Z,8.20
2023-01-07T19:07:33.418Z,8.20
2023-01-07T19:10:41.585Z,8.21
2023-01-07T19:13:45.550Z,8.07
2023-01-07T19:16:48.084Z,8.17
2023-01-07T19:19:53.841Z,8.22
2023-01-07T19:23:00.395Z,7.88
2023-01-07T19:26:06.602Z,7.98
2023-01-07T19:29:09.761Z,7.96
2023-01-07T19:32:12.496Z,7.94
2023-01-07T19:35:15.190Z,8.05
2023-01-07T19:38:17.855Z,8.02
2023-01-07T19:41:22.394Z,8.04
2023-01-07T19:44:25.178Z,8.11
2023-01-07T19:47:27.870Z,8.13
2023-01-07T19:50:30.517Z,7.94
2023-01-07T19:53:34.561Z,8.00
2023-01-07T19:56:37.379Z,8.11
2023-01-07T19:59:39.946Z,8.01
2023-01-07T20:02:42.650Z,7.84
2023-01-07T20:05:45.408Z,8.02
2023-01-07T20:08:48.393Z,7.90
2023-01-07T20:11:51.145Z,8.04
2023-01-07T20:14:53.813Z,7.86
2023-01-07T20:17:56.581Z,8.14
2023-01-07T20:20:59.882Z,8.16
2023-01-07T20:24:04.123Z,8.18
2023-01-07T20:27:06.873Z,8.03
2023-01-07T20:30:10.894Z,8.14
2023-01-07T20:33:13.366Z,7.88
2023-01-07T20:36:28.025Z,8.17
2023-01-07T20:39:30.446Z,7.88
2023-01-07T20:42:33.084Z,8.21
2023-01-07T20:45:38.291Z,8.26
2023-01-07T20:48:42.985Z,8.18
2023-01-07T20:51:45.403Z,8.14
2023-01-07T20:54:48.100Z,8.02
2023-01-07T20:57:50.529Z,8.19
2023-01-07T21:00:53.896Z,8.18
2023-01-07T21:03:56.433Z,8.00
2023-01-07T21:06:59.103Z,8.05
2023-01-07T21:10:01.533Z,7.87
2023-01-07T21:13:05.248Z,7.85
2023-01-07T21:16:08.139Z,8.10
2023-01-07T21:19:11.363Z,8.13
2023-01-07T21:22:13.781Z,7.73
2023-01-07T21:25:18.090Z,8.08
2023-01-07T21:28:20.545Z,8.15
2023-01-07T21:31:23.681Z,8.13
2023-01-07T21:34:26.397Z,8.13
2023-01-07T21:37:29.465Z,8.11
2023-01-07T21:40:31.900Z,8.14
2023-01-07T21:43:35.113Z,7.96
2023-01-07T21:46:37.558Z,7.97
2023-01-07T21:49:40.173Z,8.10
2023-01-07T21:52:42.934Z,8.07
2023-01-07T21:55:45.773Z,8.04
2023-01-07T21:58:49.059Z,8.03
2023-01-07T22:01:52.617Z,7.87
2023-01-07T22:04:55.292Z,7.91
2023-01-07T22:07:57.824Z,7.92
2023-01-07T22:11:00.576Z,8.05
2023-01-07T22:14:02.950Z,7.73
2023-01-07T22:17:06.786Z,7.90
2023-01-07T22:20:09.948Z,7.87
2023-01-07T22:23:17.132Z,8.05
2023-01-07T22:26:20.498Z,7.89
2023-01-07T22:29:23.202Z,7.97
2023-01-07T22:32:25.513Z,8.10
2023-01-07T22:35:30.393Z,8.02
2023-01-07T22:38:33.190Z,8.12
2023-01-07T22:41:36.481Z,7.91
2023-01-07T22:44:45.952Z,8.05
2023-01-07T22:47:50.978Z,7.96
2023-01-07T22:51:07.160Z,8.15
2023-01-07T22:54:11.577Z,7.99
2023-01-07T22:57:14.691Z,8.11
2023-01-07T23:00:41.397Z,8.07
2023-01-07T23:03:45.197Z,8.06
2023-01-07T23:06:47.904Z,8.02
2023-01-07T23:09:51.655Z,8.01
2023-01-07T23:12:54.462Z,7.98
2023-01-07T23:16:00.249Z,7.76
2023-01-07T23:19:02.902Z,8.09
2023-01-07T23:22:05.479Z,8.13
2023-01-07T23:25:08.371Z,8.10
2023-01-07T23:28:10.746Z,7.94
2023-01-07T23:31:13.568Z,8.08
2023-01-07T23:34:16.453Z,8.03
2023-01-07T23:37:19.049Z,8.11
2023-01-07T23:40:21.443Z,8.14
2023-01-07T23:43:24.327Z,7.98
2023-01-07T23:46:26.703Z,8.00
2023-01-07T23:49:29.691Z,7.98
2023-01-07T23:52:31.991Z,8.00
2023-01-07T23:55:34.685Z,8.02
2023-01-07T23:58:37.931Z,8.16
